sensor_id;sensor_type;location;lat;lon;timestamp;P1;durP1;ratioP1;P2;durP2;ratioP2
11791;SDS011;5953;52.372;9.918;2023-07-20T00:02:21;0.87;;;0.60;;
11791;SDS011;5953;52.372;9.918;2023-07-20T00:04:48;1.83;;;0.80;;
11791;SDS011;5953;52.372;9.918;2023-07-20T00:07:18;0.97;;;0.87;;
11791;SDS011;5953;52.372;9.918;2023-07-20T00:09:45;0.80;;;0.80;;
11791;SDS011;5953;52.372;9.918;2023-07-20T00:12:13;1.10;;;0.80;;
11791;SDS011;5953;52.372;9.918;2023-07-20T00:14:41;2.43;;;0.90;;
11791;SDS011;5953;52.372;9.918;2023-07-20T00:17:09;1.33;;;0.80;;
11791;SDS011;5953;52.372;9.918;2023-07-20T00:19:36;1.00;;;0.70;;
11791;SDS011;5953;52.372;9.918;2023-07-20T00:22:04;1.20;;;0.70;;
11791;SDS011;5953;52.372;9.918;2023-07-20T00:24:33;0.83;;;0.60;;
11791;SDS011;5953;52.372;9.918;2023-07-20T00:27:01;0.87;;;0.60;;
11791;SDS011;5953;52.372;9.918;2023-07-20T00:29:29;0.87;;;0.87;;
11791;SDS011;5953;52.372;9.918;2023-07-20T00:31:57;1.90;;;0.70;;
11791;SDS011;5953;52.372;9.918;2023-07-20T00:36:58;0.97;;;0.80;;
11791;SDS011;5953;52.372;9.918;2023-07-20T00:39:25;0.80;;;0.77;;
11791;SDS011;5953;52.372;9.918;2023-07-20T00:41:54;1.77;;;0.70;;
11791;SDS011;5953;52.372;9.918;2023-07-20T00:44:22;3.60;;;0.80;;
11791;SDS011;5953;52.372;9.918;2023-07-20T00:46:50;0.80;;;0.80;;
11791;SDS011;5953;52.372;9.918;2023-07-20T00:49:18;1.80;;;0.87;;
11791;SDS011;5953;52.372;9.918;2023-07-20T00:51:48;0.80;;;0.80;;
11791;SDS011;5953;52.372;9.918;2023-07-20T00:54:16;0.80;;;0.80;;
11791;SDS011;5953;52.372;9.918;2023-07-20T00:56:44;1.10;;;0.83;;
11791;SDS011;5953;52.372;9.918;2023-07-20T00:59:14;1.07;;;0.90;;
11791;SDS011;5953;52.372;9.918;2023-07-20T01:01:41;0.77;;;0.77;;
11791;SDS011;5953;52.372;9.918;2023-07-20T01:04:09;1.30;;;0.77;;
11791;SDS011;5953;52.372;9.918;2023-07-20T01:06:40;2.37;;;1.20;;
11791;SDS011;5953;52.372;9.918;2023-07-20T01:09:26;0.70;;;0.70;;
11791;SDS011;5953;52.372;9.918;2023-07-20T01:12:00;1.33;;;1.00;;
11791;SDS011;5953;52.372;9.918;2023-07-20T01:14:34;1.10;;;1.00;;
11791;SDS011;5953;52.372;9.918;2023-07-20T01:17:02;1.63;;;0.70;;
11791;SDS011;5953;52.372;9.918;2023-07-20T01:19:30;1.17;;;0.70;;
11791;SDS011;5953;52.372;9.918;2023-07-20T01:22:00;1.33;;;1.03;;
11791;SDS011;5953;52.372;9.918;2023-07-20T01:24:32;1.43;;;0.97;;
11791;SDS011;5953;52.372;9.918;2023-07-20T01:27:36;1.70;;;0.90;;
11791;SDS011;5953;52.372;9.918;2023-07-20T01:30:28;0.80;;;0.80;;
11791;SDS011;5953;52.372;9.918;2023-07-20T01:33:13;0.90;;;0.77;;
11791;SDS011;5953;52.372;9.918;2023-07-20T01:35:44;0.90;;;0.90;;
11791;SDS011;5953;52.372;9.918;2023-07-20T01:38:13;0.60;;;0.60;;
11791;SDS011;5953;52.372;9.918;2023-07-20T01:40:42;1.27;;;1.07;;
11791;SDS011;5953;52.372;9.918;2023-07-20T01:43:10;0.97;;;0.87;;
11791;SDS011;5953;52.372;9.918;2023-07-20T01:45:39;1.67;;;1.07;;
11791;SDS011;5953;52.372;9.918;2023-07-20T01:48:07;0.70;;;0.70;;
11791;SDS011;5953;52.372;9.918;2023-07-20T01:50:36;0.87;;;0.87;;
11791;SDS011;5953;52.372;9.918;2023-07-20T01:53:04;0.90;;;0.90;;
11791;SDS011;5953;52.372;9.918;2023-07-20T01:55:32;1.67;;;1.00;;
11791;SDS011;5953;52.372;9.918;2023-07-20T01:58:00;0.83;;;0.80;;
11791;SDS011;5953;52.372;9.918;2023-07-20T02:00:28;0.80;;;0.80;;
11791;SDS011;5953;52.372;9.918;2023-07-20T02:02:56;0.83;;;0.83;;
11791;SDS011;5953;52.372;9.918;2023-07-20T02:05:23;0.87;;;0.87;;
11791;SDS011;5953;52.372;9.918;2023-07-20T02:07:53;1.90;;;0.90;;
11791;SDS011;5953;52.372;9.918;2023-07-20T02:10:21;1.00;;;0.90;;
11791;SDS011;5953;52.372;9.918;2023-07-20T02:12:49;1.63;;;1.07;;
11791;SDS011;5953;52.372;9.918;2023-07-20T02:15:16;2.10;;;1.00;;
11791;SDS011;5953;52.372;9.918;2023-07-20T02:17:45;1.43;;;1.00;;
11791;SDS011;5953;52.372;9.918;2023-07-20T02:20:13;1.43;;;0.90;;
11791;SDS011;5953;52.372;9.918;2023-07-20T02:22:41;1.00;;;0.90;;
11791;SDS011;5953;52.372;9.918;2023-07-20T02:25:10;0.93;;;0.93;;
11791;SDS011;5953;52.372;9.918;2023-07-20T02:27:38;1.53;;;1.07;;
11791;SDS011;5953;52.372;9.918;2023-07-20T02:30:06;2.80;;;1.23;;
11791;SDS011;5953;52.372;9.918;2023-07-20T02:32:36;1.40;;;1.10;;
11791;SDS011;5953;52.372;9.918;2023-07-20T02:35:04;0.97;;;0.80;;
11791;SDS011;5953;52.372;9.918;2023-07-20T02:37:32;1.33;;;1.23;;
11791;SDS011;5953;52.372;9.918;2023-07-20T02:40:00;1.73;;;1.00;;
11791;SDS011;5953;52.372;9.918;2023-07-20T02:42:33;1.30;;;1.20;;
11791;SDS011;5953;52.372;9.918;2023-07-20T02:45:01;0.80;;;0.80;;
11791;SDS011;5953;52.372;9.918;2023-07-20T02:47:30;1.90;;;1.67;;
11791;SDS011;5953;52.372;9.918;2023-07-20T02:49:58;1.87;;;1.00;;
11791;SDS011;5953;52.372;9.918;2023-07-20T02:52:26;1.20;;;0.80;;
11791;SDS011;5953;52.372;9.918;2023-07-20T02:54:55;1.03;;;0.97;;
11791;SDS011;5953;52.372;9.918;2023-07-20T02:57:23;0.80;;;0.80;;
11791;SDS011;5953;52.372;9.918;2023-07-20T02:59:52;1.60;;;0.77;;
11791;SDS011;5953;52.372;9.918;2023-07-20T03:02:20;2.00;;;1.30;;
11791;SDS011;5953;52.372;9.918;2023-07-20T03:04:47;1.50;;;1.40;;
11791;SDS011;5953;52.372;9.918;2023-07-20T03:07:15;1.20;;;1.10;;
11791;SDS011;5953;52.372;9.918;2023-07-20T03:09:46;1.20;;;1.10;;
11791;SDS011;5953;52.372;9.918;2023-07-20T03:12:14;1.93;;;1.13;;
11791;SDS011;5953;52.372;9.918;2023-07-20T03:14:41;1.33;;;1.23;;
11791;SDS011;5953;52.372;9.918;2023-07-20T03:17:11;1.33;;;0.90;;
11791;SDS011;5953;52.372;9.918;2023-07-20T03:19:38;1.47;;;1.27;;
11791;SDS011;5953;52.372;9.918;2023-07-20T03:22:06;1.40;;;1.30;;
11791;SDS011;5953;52.372;9.918;2023-07-20T03:24:34;1.40;;;1.30;;
11791;SDS011;5953;52.372;9.918;2023-07-20T03:27:02;1.27;;;1.17;;
11791;SDS011;5953;52.372;9.918;2023-07-20T03:29:31;1.33;;;1.10;;
11791;SDS011;5953;52.372;9.918;2023-07-20T03:31:59;1.67;;;1.17;;
11791;SDS011;5953;52.372;9.918;2023-07-20T03:34:29;1.50;;;1.20;;
11791;SDS011;5953;52.372;9.918;2023-07-20T03:36:56;3.67;;;1.37;;
11791;SDS011;5953;52.372;9.918;2023-07-20T03:39:25;1.20;;;1.10;;
11791;SDS011;5953;52.372;9.918;2023-07-20T03:41:53;1.27;;;1.17;;
11791;SDS011;5953;52.372;9.918;2023-07-20T03:44:21;1.93;;;1.20;;
11791;SDS011;5953;52.372;9.918;2023-07-20T03:46:49;1.00;;;1.00;;
11791;SDS011;5953;52.372;9.918;2023-07-20T03:49:17;1.33;;;1.23;;
11791;SDS011;5953;52.372;9.918;2023-07-20T03:51:46;1.10;;;1.00;;
11791;SDS011;5953;52.372;9.918;2023-07-20T03:54:14;1.30;;;1.00;;
11791;SDS011;5953;52.372;9.918;2023-07-20T03:56:42;1.30;;;1.20;;
11791;SDS011;5953;52.372;9.918;2023-07-20T03:59:09;1.43;;;0.97;;
11791;SDS011;5953;52.372;9.918;2023-07-20T04:01:37;1.33;;;1.20;;
11791;SDS011;5953;52.372;9.918;2023-07-20T04:04:07;1.77;;;1.30;;
11791;SDS011;5953;52.372;9.918;2023-07-20T04:06:35;1.70;;;1.60;;
11791;SDS011;5953;52.372;9.918;2023-07-20T04:09:04;4.43;;;1.30;;
11791;SDS011;5953;52.372;9.918;2023-07-20T04:11:32;1.60;;;1.50;;
11791;SDS011;5953;52.372;9.918;2023-07-20T04:13:59;2.37;;;1.20;;
11791;SDS011;5953;52.372;9.918;2023-07-20T04:16:27;1.93;;;1.27;;
11791;SDS011;5953;52.372;9.918;2023-07-20T04:18:55;1.00;;;1.00;;
11791;SDS011;5953;52.372;9.918;2023-07-20T04:21:25;1.57;;;1.20;;
11791;SDS011;5953;52.372;9.918;2023-07-20T04:23:54;1.00;;;1.00;;
11791;SDS011;5953;52.372;9.918;2023-07-20T04:26:23;1.50;;;1.40;;
11791;SDS011;5953;52.372;9.918;2023-07-20T04:28:51;1.43;;;1.30;;
11791;SDS011;5953;52.372;9.918;2023-07-20T04:31:19;1.70;;;1.60;;
11791;SDS011;5953;52.372;9.918;2023-07-20T04:33:47;3.63;;;1.90;;
11791;SDS011;5953;52.372;9.918;2023-07-20T04:36:14;2.10;;;1.67;;
11791;SDS011;5953;52.372;9.918;2023-07-20T04:38:45;3.47;;;1.67;;
11791;SDS011;5953;52.372;9.918;2023-07-20T04:41:13;4.30;;;1.60;;
11791;SDS011;5953;52.372;9.918;2023-07-20T04:43:43;1.70;;;1.60;;
11791;SDS011;5953;52.372;9.918;2023-07-20T04:46:11;3.80;;;1.90;;
11791;SDS011;5953;52.372;9.918;2023-07-20T04:48:39;2.87;;;1.70;;
11791;SDS011;5953;52.372;9.918;2023-07-20T04:51:07;1.63;;;1.53;;
11791;SDS011;5953;52.372;9.918;2023-07-20T04:53:36;3.27;;;1.97;;
11791;SDS011;5953;52.372;9.918;2023-07-20T04:56:04;2.97;;;1.57;;
11791;SDS011;5953;52.372;9.918;2023-07-20T04:58:32;3.40;;;1.90;;
11791;SDS011;5953;52.372;9.918;2023-07-20T05:01:01;5.43;;;2.27;;
11791;SDS011;5953;52.372;9.918;2023-07-20T05:03:28;5.27;;;2.20;;
11791;SDS011;5953;52.372;9.918;2023-07-20T05:05:56;2.97;;;2.10;;
11791;SDS011;5953;52.372;9.918;2023-07-20T05:08:24;3.60;;;2.00;;
11791;SDS011;5953;52.372;9.918;2023-07-20T05:10:53;3.73;;;2.30;;
11791;SDS011;5953;52.372;9.918;2023-07-20T05:13:20;4.40;;;2.30;;
11791;SDS011;5953;52.372;9.918;2023-07-20T05:15:50;2.60;;;1.97;;
11791;SDS011;5953;52.372;9.918;2023-07-20T05:18:20;2.40;;;2.00;;
11791;SDS011;5953;52.372;9.918;2023-07-20T05:20:48;2.07;;;1.43;;
11791;SDS011;5953;52.372;9.918;2023-07-20T05:23:17;1.70;;;1.57;;
11791;SDS011;5953;52.372;9.918;2023-07-20T05:25:45;3.23;;;1.83;;
11791;SDS011;5953;52.372;9.918;2023-07-20T05:28:13;2.53;;;1.60;;
11791;SDS011;5953;52.372;9.918;2023-07-20T05:30:41;3.00;;;1.53;;
11791;SDS011;5953;52.372;9.918;2023-07-20T05:33:09;7.57;;;3.40;;
11791;SDS011;5953;52.372;9.918;2023-07-20T05:35:38;9.13;;;3.57;;
11791;SDS011;5953;52.372;9.918;2023-07-20T05:38:05;11.47;;;4.07;;
11791;SDS011;5953;52.372;9.918;2023-07-20T05:40:35;10.60;;;5.10;;
11791;SDS011;5953;52.372;9.918;2023-07-20T05:43:04;9.63;;;4.70;;
11791;SDS011;5953;52.372;9.918;2023-07-20T05:45:32;9.13;;;5.13;;
11791;SDS011;5953;52.372;9.918;2023-07-20T05:48:00;14.07;;;5.07;;
11791;SDS011;5953;52.372;9.918;2023-07-20T05:50:27;12.80;;;5.03;;
11791;SDS011;5953;52.372;9.918;2023-07-20T05:52:57;10.13;;;4.17;;
11791;SDS011;5953;52.372;9.918;2023-07-20T05:55:24;8.93;;;3.77;;
11791;SDS011;5953;52.372;9.918;2023-07-20T05:57:52;24.13;;;6.63;;
11791;SDS011;5953;52.372;9.918;2023-07-20T06:00:22;14.67;;;6.77;;
11791;SDS011;5953;52.372;9.918;2023-07-20T06:02:52;17.63;;;6.27;;
11791;SDS011;5953;52.372;9.918;2023-07-20T06:05:21;10.03;;;5.40;;
11791;SDS011;5953;52.372;9.918;2023-07-20T06:07:54;10.87;;;5.43;;
11791;SDS011;5953;52.372;9.918;2023-07-20T06:10:25;10.47;;;4.80;;
11791;SDS011;5953;52.372;9.918;2023-07-20T06:12:53;4.83;;;3.13;;
11791;SDS011;5953;52.372;9.918;2023-07-20T06:15:25;5.80;;;3.40;;
11791;SDS011;5953;52.372;9.918;2023-07-20T06:17:54;4.47;;;3.30;;
11791;SDS011;5953;52.372;9.918;2023-07-20T06:20:22;5.47;;;3.03;;
11791;SDS011;5953;52.372;9.918;2023-07-20T06:22:50;4.13;;;2.53;;
11791;SDS011;5953;52.372;9.918;2023-07-20T06:25:18;3.20;;;2.57;;
11791;SDS011;5953;52.372;9.918;2023-07-20T06:27:48;3.57;;;2.90;;
11791;SDS011;5953;52.372;9.918;2023-07-20T06:30:16;4.67;;;2.67;;
11791;SDS011;5953;52.372;9.918;2023-07-20T06:32:44;4.30;;;3.07;;
11791;SDS011;5953;52.372;9.918;2023-07-20T06:35:12;4.23;;;3.00;;
11791;SDS011;5953;52.372;9.918;2023-07-20T06:37:40;3.37;;;2.80;;
11791;SDS011;5953;52.372;9.918;2023-07-20T06:40:08;3.63;;;3.27;;
11791;SDS011;5953;52.372;9.918;2023-07-20T06:42:39;3.67;;;3.37;;
11791;SDS011;5953;52.372;9.918;2023-07-20T06:45:11;6.47;;;3.87;;
11791;SDS011;5953;52.372;9.918;2023-07-20T06:47:39;3.80;;;3.50;;
11791;SDS011;5953;52.372;9.918;2023-07-20T06:50:08;4.37;;;3.67;;
11791;SDS011;5953;52.372;9.918;2023-07-20T06:52:43;3.83;;;3.50;;
11791;SDS011;5953;52.372;9.918;2023-07-20T06:55:12;4.80;;;4.30;;
11791;SDS011;5953;52.372;9.918;2023-07-20T06:57:41;5.00;;;4.50;;
11791;SDS011;5953;52.372;9.918;2023-07-20T07:00:15;8.17;;;4.20;;
11791;SDS011;5953;52.372;9.918;2023-07-20T07:02:43;6.27;;;4.83;;
11791;SDS011;5953;52.372;9.918;2023-07-20T07:05:15;4.57;;;3.70;;
11791;SDS011;5953;52.372;9.918;2023-07-20T07:07:46;3.93;;;2.80;;
11791;SDS011;5953;52.372;9.918;2023-07-20T07:10:15;3.70;;;3.00;;
11791;SDS011;5953;52.372;9.918;2023-07-20T07:12:43;3.63;;;2.87;;
11791;SDS011;5953;52.372;9.918;2023-07-20T07:15:10;3.70;;;3.07;;
11791;SDS011;5953;52.372;9.918;2023-07-20T07:17:40;3.27;;;3.00;;
11791;SDS011;5953;52.372;9.918;2023-07-20T07:20:10;3.73;;;3.43;;
11791;SDS011;5953;52.372;9.918;2023-07-20T07:22:45;5.27;;;3.90;;
11791;SDS011;5953;52.372;9.918;2023-07-20T07:25:13;3.77;;;3.50;;
11791;SDS011;5953;52.372;9.918;2023-07-20T07:27:48;3.17;;;2.80;;
11791;SDS011;5953;52.372;9.918;2023-07-20T07:30:16;3.67;;;2.60;;
11791;SDS011;5953;52.372;9.918;2023-07-20T07:32:45;2.80;;;2.60;;
11791;SDS011;5953;52.372;9.918;2023-07-20T07:35:13;2.50;;;2.20;;
11791;SDS011;5953;52.372;9.918;2023-07-20T07:37:41;2.60;;;2.40;;
11791;SDS011;5953;52.372;9.918;2023-07-20T07:40:28;6.20;;;2.60;;
11791;SDS011;5953;52.372;9.918;2023-07-20T07:42:56;2.40;;;2.20;;
11791;SDS011;5953;52.372;9.918;2023-07-20T07:45:24;4.10;;;2.20;;
11791;SDS011;5953;52.372;9.918;2023-07-20T07:47:53;3.00;;;2.00;;
11791;SDS011;5953;52.372;9.918;2023-07-20T07:50:21;2.37;;;1.57;;
11791;SDS011;5953;52.372;9.918;2023-07-20T07:52:49;2.07;;;1.40;;
11791;SDS011;5953;52.372;9.918;2023-07-20T07:55:17;1.27;;;0.93;;
11791;SDS011;5953;52.372;9.918;2023-07-20T07:57:45;1.70;;;1.60;;
11791;SDS011;5953;52.372;9.918;2023-07-20T08:00:14;4.70;;;1.43;;
11791;SDS011;5953;52.372;9.918;2023-07-20T08:02:45;1.43;;;1.33;;
11791;SDS011;5953;52.372;9.918;2023-07-20T08:05:16;1.67;;;1.43;;
11791;SDS011;5953;52.372;9.918;2023-07-20T08:07:44;1.73;;;1.37;;
11791;SDS011;5953;52.372;9.918;2023-07-20T08:14:08;1.50;;;0.90;;
11791;SDS011;5953;52.372;9.918;2023-07-20T08:16:39;1.20;;;1.10;;
11791;SDS011;5953;52.372;9.918;2023-07-20T08:19:07;2.47;;;1.30;;
11791;SDS011;5953;52.372;9.918;2023-07-20T08:21:36;1.47;;;1.20;;
11791;SDS011;5953;52.372;9.918;2023-07-20T08:24:04;1.87;;;1.10;;
11791;SDS011;5953;52.372;9.918;2023-07-20T08:26:33;1.60;;;1.33;;
11791;SDS011;5953;52.372;9.918;2023-07-20T08:29:01;2.00;;;1.20;;
11791;SDS011;5953;52.372;9.918;2023-07-20T08:31:29;1.90;;;1.00;;
11791;SDS011;5953;52.372;9.918;2023-07-20T08:33:57;2.17;;;0.97;;
11791;SDS011;5953;52.372;9.918;2023-07-20T08:36:24;1.70;;;0.90;;
11791;SDS011;5953;52.372;9.918;2023-07-20T08:38:55;1.33;;;1.00;;
11791;SDS011;5953;52.372;9.918;2023-07-20T08:41:23;1.67;;;1.10;;
11791;SDS011;5953;52.372;9.918;2023-07-20T08:43:51;1.67;;;1.10;;
11791;SDS011;5953;52.372;9.918;2023-07-20T08:46:22;1.60;;;1.20;;
11791;SDS011;5953;52.372;9.918;2023-07-20T08:48:51;1.33;;;1.20;;
11791;SDS011;5953;52.372;9.918;2023-07-20T08:51:20;1.90;;;1.23;;
11791;SDS011;5953;52.372;9.918;2023-07-20T08:53:49;1.20;;;1.10;;
11791;SDS011;5953;52.372;9.918;2023-07-20T08:56:19;3.20;;;1.10;;
11791;SDS011;5953;52.372;9.918;2023-07-20T08:58:48;1.30;;;1.20;;
11791;SDS011;5953;52.372;9.918;2023-07-20T09:01:17;1.52;;;0.98;;
11791;SDS011;5953;52.372;9.918;2023-07-20T09:03:46;1.43;;;1.20;;
11791;SDS011;5953;52.372;9.918;2023-07-20T09:06:14;1.27;;;1.17;;
11791;SDS011;5953;52.372;9.918;2023-07-20T09:08:42;0.87;;;0.83;;
11791;SDS011;5953;52.372;9.918;2023-07-20T09:11:11;1.30;;;1.20;;
11791;SDS011;5953;52.372;9.918;2023-07-20T09:13:41;1.38;;;0.98;;
11791;SDS011;5953;52.372;9.918;2023-07-20T09:16:08;0.80;;;0.60;;
11791;SDS011;5953;52.372;9.918;2023-07-20T09:18:40;1.50;;;0.88;;
11791;SDS011;5953;52.372;9.918;2023-07-20T09:21:10;1.85;;;0.90;;
11791;SDS011;5953;52.372;9.918;2023-07-20T09:23:38;0.80;;;0.80;;
11791;SDS011;5953;52.372;9.918;2023-07-20T09:26:10;0.80;;;0.80;;
11791;SDS011;5953;52.372;9.918;2023-07-20T09:28:43;1.23;;;0.90;;
11791;SDS011;5953;52.372;9.918;2023-07-20T09:31:16;1.02;;;0.90;;
11791;SDS011;5953;52.372;9.918;2023-07-20T09:33:45;3.13;;;1.00;;
11791;SDS011;5953;52.372;9.918;2023-07-20T09:36:16;1.75;;;0.90;;
11791;SDS011;5953;52.372;9.918;2023-07-20T09:39:04;1.60;;;1.10;;
11791;SDS011;5953;52.372;9.918;2023-07-20T09:41:39;1.08;;;0.90;;
11791;SDS011;5953;52.372;9.918;2023-07-20T09:44:14;0.80;;;0.70;;
11791;SDS011;5953;52.372;9.918;2023-07-20T09:46:45;1.25;;;0.80;;
11791;SDS011;5953;52.372;9.918;2023-07-20T09:49:16;0.80;;;0.60;;
11791;SDS011;5953;52.372;9.918;2023-07-20T09:51:47;1.80;;;0.75;;
11791;SDS011;5953;52.372;9.918;2023-07-20T09:54:16;1.73;;;1.00;;
11791;SDS011;5953;52.372;9.918;2023-07-20T09:56:45;0.57;;;0.57;;
11791;SDS011;5953;52.372;9.918;2023-07-20T09:59:15;0.95;;;0.60;;
11791;SDS011;5953;52.372;9.918;2023-07-20T10:01:42;1.60;;;0.88;;
11791;SDS011;5953;52.372;9.918;2023-07-20T10:04:12;0.60;;;0.60;;
11791;SDS011;5953;52.372;9.918;2023-07-20T10:06:42;1.45;;;0.93;;
11791;SDS011;5953;52.372;9.918;2023-07-20T10:09:13;0.95;;;0.80;;
11791;SDS011;5953;52.372;9.918;2023-07-20T10:11:43;0.57;;;0.57;;
11791;SDS011;5953;52.372;9.918;2023-07-20T10:14:40;1.00;;;0.80;;
11791;SDS011;5953;52.372;9.918;2023-07-20T10:17:12;4.65;;;0.80;;
11791;SDS011;5953;52.372;9.918;2023-07-20T10:19:42;3.08;;;0.88;;
11791;SDS011;5953;52.372;9.918;2023-07-20T10:22:17;1.05;;;1.00;;
11791;SDS011;5953;52.372;9.918;2023-07-20T10:24:47;2.45;;;0.90;;
11791;SDS011;5953;52.372;9.918;2023-07-20T10:27:17;2.00;;;0.80;;
11791;SDS011;5953;52.372;9.918;2023-07-20T10:29:47;1.88;;;0.90;;
11791;SDS011;5953;52.372;9.918;2023-07-20T10:32:15;4.40;;;1.40;;
11791;SDS011;5953;52.372;9.918;2023-07-20T10:34:43;4.35;;;1.08;;
11791;SDS011;5953;52.372;9.918;2023-07-20T10:40:30;2.05;;;0.80;;
11791;SDS011;5953;52.372;9.918;2023-07-20T10:42:59;1.13;;;0.60;;
11791;SDS011;5953;52.372;9.918;2023-07-20T10:45:36;0.73;;;0.73;;
11791;SDS011;5953;52.372;9.918;2023-07-20T10:48:12;2.55;;;0.85;;
11791;SDS011;5953;52.372;9.918;2023-07-20T10:50:41;2.08;;;1.30;;
11791;SDS011;5953;52.372;9.918;2023-07-20T10:53:12;1.38;;;0.90;;
11791;SDS011;5953;52.372;9.918;2023-07-20T10:55:41;1.52;;;1.00;;
11791;SDS011;5953;52.372;9.918;2023-07-20T10:58:10;1.27;;;1.00;;
11791;SDS011;5953;52.372;9.918;2023-07-20T11:00:56;1.17;;;1.08;;
11791;SDS011;5953;52.372;9.918;2023-07-20T11:03:29;1.70;;;0.90;;
11791;SDS011;5953;52.372;9.918;2023-07-20T11:06:29;2.30;;;0.82;;
11791;SDS011;5953;52.372;9.918;2023-07-20T11:09:07;1.38;;;0.85;;
11791;SDS011;5953;52.372;9.918;2023-07-20T11:11:38;1.50;;;0.80;;
11791;SDS011;5953;52.372;9.918;2023-07-20T11:14:07;1.80;;;1.00;;
11791;SDS011;5953;52.372;9.918;2023-07-20T11:16:38;0.77;;;0.70;;
11791;SDS011;5953;52.372;9.918;2023-07-20T11:19:13;1.83;;;0.82;;
11791;SDS011;5953;52.372;9.918;2023-07-20T11:22:02;2.13;;;0.80;;
11791;SDS011;5953;52.372;9.918;2023-07-20T11:24:34;0.88;;;0.80;;
11791;SDS011;5953;52.372;9.918;2023-07-20T11:27:02;1.25;;;0.90;;
11791;SDS011;5953;52.372;9.918;2023-07-20T11:29:30;0.73;;;0.73;;
11791;SDS011;5953;52.372;9.918;2023-07-20T11:32:01;2.03;;;0.70;;
11791;SDS011;5953;52.372;9.918;2023-07-20T11:34:31;1.50;;;0.88;;
11791;SDS011;5953;52.372;9.918;2023-07-20T11:36:59;1.52;;;0.93;;
11791;SDS011;5953;52.372;9.918;2023-07-20T11:39:30;1.13;;;0.95;;
11791;SDS011;5953;52.372;9.918;2023-07-20T11:41:58;1.30;;;0.90;;
11791;SDS011;5953;52.372;9.918;2023-07-20T11:44:27;1.83;;;0.70;;
11791;SDS011;5953;52.372;9.918;2023-07-20T11:47:03;1.90;;;0.80;;
11791;SDS011;5953;52.372;9.918;2023-07-20T11:49:34;3.50;;;1.00;;
11791;SDS011;5953;52.372;9.918;2023-07-20T11:52:04;3.10;;;1.20;;
11791;SDS011;5953;52.372;9.918;2023-07-20T11:54:34;2.50;;;0.82;;
11791;SDS011;5953;52.372;9.918;2023-07-20T11:57:02;2.17;;;0.95;;
11791;SDS011;5953;52.372;9.918;2023-07-20T11:59:31;1.85;;;0.90;;
11791;SDS011;5953;52.372;9.918;2023-07-20T12:02:00;1.58;;;0.82;;
11791;SDS011;5953;52.372;9.918;2023-07-20T12:04:30;1.70;;;0.88;;
11791;SDS011;5953;52.372;9.918;2023-07-20T12:06:59;1.60;;;1.00;;
11791;SDS011;5953;52.372;9.918;2023-07-20T12:09:27;3.05;;;0.80;;
11791;SDS011;5953;52.372;9.918;2023-07-20T12:12:14;1.63;;;0.90;;
11791;SDS011;5953;52.372;9.918;2023-07-20T12:14:43;1.23;;;1.05;;
11791;SDS011;5953;52.372;9.918;2023-07-20T12:17:10;2.35;;;0.80;;
11791;SDS011;5953;52.372;9.918;2023-07-20T12:19:39;1.77;;;1.20;;
11791;SDS011;5953;52.372;9.918;2023-07-20T12:22:07;0.70;;;0.70;;
11791;SDS011;5953;52.372;9.918;2023-07-20T12:24:37;1.35;;;1.00;;
11791;SDS011;5953;52.372;9.918;2023-07-20T12:27:05;1.30;;;0.80;;
11791;SDS011;5953;52.372;9.918;2023-07-20T12:29:33;1.08;;;0.95;;
11791;SDS011;5953;52.372;9.918;2023-07-20T12:32:03;0.93;;;0.52;;
11791;SDS011;5953;52.372;9.918;2023-07-20T12:34:32;1.30;;;1.15;;
11791;SDS011;5953;52.372;9.918;2023-07-20T12:37:03;1.58;;;0.60;;
11791;SDS011;5953;52.372;9.918;2023-07-20T12:39:32;1.95;;;0.70;;
11791;SDS011;5953;52.372;9.918;2023-07-20T12:42:00;3.80;;;0.75;;
11791;SDS011;5953;52.372;9.918;2023-07-20T12:44:28;1.10;;;0.70;;
11791;SDS011;5953;52.372;9.918;2023-07-20T12:46:56;1.83;;;0.70;;
11791;SDS011;5953;52.372;9.918;2023-07-20T12:49:24;0.60;;;0.60;;
11791;SDS011;5953;52.372;9.918;2023-07-20T12:51:53;1.98;;;0.73;;
11791;SDS011;5953;52.372;9.918;2023-07-20T12:54:23;1.85;;;0.52;;
11791;SDS011;5953;52.372;9.918;2023-07-20T12:56:51;2.72;;;0.70;;
11791;SDS011;5953;52.372;9.918;2023-07-20T12:59:22;2.47;;;0.93;;
11791;SDS011;5953;52.372;9.918;2023-07-20T13:01:50;2.05;;;0.65;;
11791;SDS011;5953;52.372;9.918;2023-07-20T13:04:18;0.57;;;0.57;;
11791;SDS011;5953;52.372;9.918;2023-07-20T13:06:48;1.75;;;0.90;;
11791;SDS011;5953;52.372;9.918;2023-07-20T13:09:18;0.73;;;0.60;;
11791;SDS011;5953;52.372;9.918;2023-07-20T13:11:47;1.02;;;0.93;;
11791;SDS011;5953;52.372;9.918;2023-07-20T13:14:15;1.33;;;0.90;;
11791;SDS011;5953;52.372;9.918;2023-07-20T13:16:43;1.63;;;0.60;;
11791;SDS011;5953;52.372;9.918;2023-07-20T13:19:12;0.80;;;0.80;;
11791;SDS011;5953;52.372;9.918;2023-07-20T13:21:42;1.52;;;0.65;;
11791;SDS011;5953;52.372;9.918;2023-07-20T13:24:11;0.90;;;0.70;;
11791;SDS011;5953;52.372;9.918;2023-07-20T13:26:38;0.63;;;0.60;;
11791;SDS011;5953;52.372;9.918;2023-07-20T13:29:07;4.80;;;1.00;;
11791;SDS011;5953;52.372;9.918;2023-07-20T13:31:35;2.50;;;0.50;;
11791;SDS011;5953;52.372;9.918;2023-07-20T13:34:07;4.22;;;0.90;;
11791;SDS011;5953;52.372;9.918;2023-07-20T13:36:35;0.43;;;0.43;;
11791;SDS011;5953;52.372;9.918;2023-07-20T13:39:03;0.70;;;0.60;;
11791;SDS011;5953;52.372;9.918;2023-07-20T13:41:31;0.77;;;0.68;;
11791;SDS011;5953;52.372;9.918;2023-07-20T13:44:01;2.15;;;0.70;;
11791;SDS011;5953;52.372;9.918;2023-07-20T13:46:33;1.70;;;0.80;;
11791;SDS011;5953;52.372;9.918;2023-07-20T13:49:04;1.65;;;0.88;;
11791;SDS011;5953;52.372;9.918;2023-07-20T13:51:38;1.15;;;0.65;;
11791;SDS011;5953;52.372;9.918;2023-07-20T13:54:06;2.28;;;0.90;;
11791;SDS011;5953;52.372;9.918;2023-07-20T13:56:37;1.27;;;0.75;;
11791;SDS011;5953;52.372;9.918;2023-07-20T13:59:08;2.40;;;1.15;;
11791;SDS011;5953;52.372;9.918;2023-07-20T14:01:37;1.40;;;0.95;;
11791;SDS011;5953;52.372;9.918;2023-07-20T14:04:06;2.28;;;0.95;;
11791;SDS011;5953;52.372;9.918;2023-07-20T14:06:34;4.20;;;1.20;;
11791;SDS011;5953;52.372;9.918;2023-07-20T14:09:02;1.15;;;0.90;;
11791;SDS011;5953;52.372;9.918;2023-07-20T14:11:30;2.40;;;0.85;;
11791;SDS011;5953;52.372;9.918;2023-07-20T14:14:01;1.23;;;0.95;;
11791;SDS011;5953;52.372;9.918;2023-07-20T14:16:29;0.95;;;0.82;;
11791;SDS011;5953;52.372;9.918;2023-07-20T14:19:00;2.40;;;1.00;;
11791;SDS011;5953;52.372;9.918;2023-07-20T14:21:29;1.50;;;0.80;;
11791;SDS011;5953;52.372;9.918;2023-07-20T14:23:57;2.67;;;0.90;;
11791;SDS011;5953;52.372;9.918;2023-07-20T14:26:27;2.85;;;1.13;;
11791;SDS011;5953;52.372;9.918;2023-07-20T14:28:59;1.15;;;1.00;;
11791;SDS011;5953;52.372;9.918;2023-07-20T14:31:27;1.48;;;1.10;;
11791;SDS011;5953;52.372;9.918;2023-07-20T14:33:57;1.85;;;0.98;;
11791;SDS011;5953;52.372;9.918;2023-07-20T14:36:27;1.73;;;1.15;;
11791;SDS011;5953;52.372;9.918;2023-07-20T14:38:59;2.17;;;1.20;;
11791;SDS011;5953;52.372;9.918;2023-07-20T14:41:27;4.72;;;1.02;;
11791;SDS011;5953;52.372;9.918;2023-07-20T14:43:55;1.85;;;1.00;;
11791;SDS011;5953;52.372;9.918;2023-07-20T14:46:24;0.95;;;0.70;;
11791;SDS011;5953;52.372;9.918;2023-07-20T14:48:52;1.15;;;0.85;;
11791;SDS011;5953;52.372;9.918;2023-07-20T14:51:20;2.13;;;1.20;;
11791;SDS011;5953;52.372;9.918;2023-07-20T14:53:49;2.83;;;0.90;;
11791;SDS011;5953;52.372;9.918;2023-07-20T14:56:17;1.23;;;1.13;;
11791;SDS011;5953;52.372;9.918;2023-07-20T14:58:44;4.15;;;1.10;;
11791;SDS011;5953;52.372;9.918;2023-07-20T15:01:12;1.60;;;1.00;;
11791;SDS011;5953;52.372;9.918;2023-07-20T15:03:40;2.80;;;1.00;;
11791;SDS011;5953;52.372;9.918;2023-07-20T15:06:10;3.22;;;1.58;;
11791;SDS011;5953;52.372;9.918;2023-07-20T15:08:38;2.35;;;0.98;;
11791;SDS011;5953;52.372;9.918;2023-07-20T15:11:07;1.95;;;0.80;;
11791;SDS011;5953;52.372;9.918;2023-07-20T15:13:35;2.58;;;1.02;;
11791;SDS011;5953;52.372;9.918;2023-07-20T15:16:02;2.05;;;1.00;;
11791;SDS011;5953;52.372;9.918;2023-07-20T15:18:31;1.00;;;0.90;;
11791;SDS011;5953;52.372;9.918;2023-07-20T15:21:13;1.80;;;1.10;;
11791;SDS011;5953;52.372;9.918;2023-07-20T15:23:41;3.67;;;1.10;;
11791;SDS011;5953;52.372;9.918;2023-07-20T15:26:10;1.95;;;0.70;;